Time;durP1;ratioP1;P1;durP2;ratioP2;P2;SDS_P1;SDS_P2;PMS_P1;PMS_P2;Temp;Humidity;BMP_temperature;BMP_pressure;BME280_temperature;BME280_humidity;BME280_pressure;Samples;Min_cycle;Max_cycle;Signal;HPM_P1;HPM_P2
2022/09/14 00:01:23;;;;;;;8.23;4.93;;;18.70;99.90;;;;;;5074202;28;20046;-89
2022/09/14 00:03:58;;;;;;;9.25;5.82;;;18.70;99.90;;;;;;5067849;28;20027;-90
2022/09/14 00:06:24;;;;;;;11.10;5.78;;;18.70;99.90;;;;;;5067386;28;20074;-89
2022/09/14 00:08:52;;;;;;;6.38;5.63;;;18.70;99.90;;;;;;5070741;28;20055;-88
2022/09/14 00:11:18;;;;;;;7.45;6.13;;;18.70;99.90;;;;;;5076881;28;20032;-87
2022/09/14 00:13:46;;;;;;;8.75;5.68;;;18.70;99.90;;;;;;5069949;28;20013;-86
2022/09/14 00:16:21;;;;;;;7.03;5.47;;;18.70;99.90;;;;;;5070625;28;20477;-87
2022/09/14 00:18:55;;;;;;;8.55;5.70;;;18.60;99.90;;;;;;5071466;28;20107;-87
2022/09/14 00:21:22;;;;;;;5.95;4.80;;;18.70;99.90;;;;;;5070279;28;20033;-87
2022/09/14 00:23:47;;;;;;;7.97;5.55;;;18.70;99.90;;;;;;5076162;28;20036;-87
2022/09/14 00:26:16;;;;;;;5.80;5.15;;;18.70;99.90;;;;;;5067526;28;20039;-87
2022/09/14 00:28:44;;;;;;;7.38;5.90;;;18.60;99.90;;;;;;5074419;28;20032;-88
2022/09/14 00:31:11;;;;;;;11.75;5.90;;;18.70;99.90;;;;;;5062342;28;20041;-86
2022/09/14 00:33:38;;;;;;;8.15;6.68;;;18.70;99.90;;;;;;5055041;28;20052;-88
2022/09/14 00:36:15;;;;;;;7.82;6.22;;;18.70;99.90;;;;;;5066866;28;20066;-87
2022/09/14 00:38:41;;;;;;;6.75;5.63;;;18.70;99.90;;;;;;5065660;28;20127;-87
2022/09/14 00:41:10;;;;;;;7.50;5.75;;;18.70;99.90;;;;;;5064358;28;20119;-87
2022/09/14 00:43:56;;;;;;;9.07;6.60;;;18.80;99.90;;;;;;5070592;28;20089;-86
2022/09/14 00:46:22;;;;;;;6.97;5.65;;;18.80;99.90;;;;;;5062874;28;20043;-87
2022/09/14 00:48:48;;;;;;;7.22;5.47;;;18.80;99.90;;;;;;5059023;28;20016;-89
2022/09/14 00:51:16;;;;;;;5.70;4.90;;;18.80;99.90;;;;;;5063124;28;20061;-87
2022/09/14 00:53:42;;;;;;;7.40;5.90;;;18.80;99.90;;;;;;5067032;28;20024;-87
2022/09/14 00:56:08;;;;;;;6.47;5.88;;;18.90;99.90;;;;;;5079943;28;20024;-86
2022/09/14 00:58:34;;;;;;;8.80;6.10;;;18.90;99.90;;;;;;5099810;28;20050;-86
2022/09/14 01:01:01;;;;;;;8.43;6.55;;;18.90;99.90;;;;;;5093956;28;20036;-87
2022/09/14 01:03:26;;;;;;;6.10;5.53;;;18.90;99.90;;;;;;5079259;28;20041;-85
2022/09/14 01:06:03;;;;;;;8.68;6.15;;;18.90;99.90;;;;;;5072461;28;20058;-87
2022/09/14 01:08:48;;;;;;;7.82;6.05;;;18.90;99.90;;;;;;5085171;28;20033;-87
2022/09/14 01:11:41;;;;;;;9.73;6.90;;;18.90;99.90;;;;;;5070980;28;20067;-89
2022/09/14 01:14:21;;;;;;;6.60;5.90;;;18.90;99.90;;;;;;5074703;28;20017;-87
2022/09/14 01:16:59;;;;;;;6.80;6.05;;;18.90;99.90;;;;;;5072691;28;20043;-87
2022/09/14 01:19:48;;;;;;;8.00;5.82;;;18.90;99.90;;;;;;5062560;28;20039;-88
2022/09/14 01:22:23;;;;;;;6.80;5.65;;;18.80;99.90;;;;;;5059632;28;20044;-88
2022/09/14 01:24:56;;;;;;;13.20;7.25;;;18.80;99.90;;;;;;5073937;28;20029;-87
2022/09/14 01:27:31;;;;;;;7.53;6.18;;;18.70;99.90;;;;;;5074814;28;20051;-88
2022/09/14 01:30:00;;;;;;;9.75;6.63;;;18.70;99.90;;;;;;5080997;28;20124;-88
2022/09/14 01:32:36;;;;;;;10.32;6.70;;;18.70;99.90;;;;;;5077127;28;20113;-88
2022/09/14 01:35:06;;;;;;;11.45;6.57;;;18.70;99.90;;;;;;5080226;28;20036;-87
2022/09/14 01:38:22;;;;;;;6.78;6.07;;;18.60;99.90;;;;;;5081554;28;20026;-87
2022/09/14 01:40:49;;;;;;;6.88;5.25;;;18.60;99.90;;;;;;5023823;28;20044;-88
2022/09/14 01:43:25;;;;;;;8.02;5.00;;;18.50;99.90;;;;;;5067654;28;20040;-87
2022/09/14 01:45:53;;;;;;;7.90;5.35;;;18.40;99.90;;;;;;5078396;28;20039;-89
2022/09/14 01:48:25;;;;;;;7.85;5.00;;;18.50;99.90;;;;;;5076974;28;20071;-88
2022/09/14 01:50:55;;;;;;;12.68;5.50;;;18.50;99.90;;;;;;5069869;28;20163;-87
2022/09/14 01:53:37;;;;;;;7.95;4.90;;;18.60;99.90;;;;;;5069799;28;20031;-87
2022/09/14 01:56:14;;;;;;;6.28;5.13;;;18.50;99.90;;;;;;5071760;28;20021;-87
2022/09/14 01:58:55;;;;;;;5.32;4.50;;;18.40;99.90;;;;;;5067962;28;20073;-90
2022/09/14 02:01:29;;;;;;;6.65;4.85;;;18.50;99.90;;;;;;5073627;28;20166;-88
2022/09/14 02:03:59;;;;;;;5.78;3.97;;;18.40;99.90;;;;;;5073870;28;20021;-86
2022/09/14 02:06:33;;;;;;;5.78;4.10;;;18.40;99.90;;;;;;5067455;28;20029;-88
2022/09/14 02:08:59;;;;;;;6.53;3.33;;;18.30;99.90;;;;;;5071662;28;20032;-88
2022/09/14 02:11:25;;;;;;;7.63;4.03;;;18.30;99.90;;;;;;5088294;28;20396;-88
2022/09/14 02:13:50;;;;;;;8.13;4.18;;;18.30;99.90;;;;;;5071215;28;20096;-88
2022/09/14 02:16:16;;;;;;;4.88;4.25;;;18.30;99.90;;;;;;5077705;28;20074;-87
2022/09/14 02:18:42;;;;;;;8.60;4.43;;;18.30;99.90;;;;;;5057744;28;20035;-88
2022/09/14 02:21:18;;;;;;;7.13;4.72;;;18.20;99.90;;;;;;5068465;28;20380;-86
2022/09/14 02:23:44;;;;;;;6.47;4.70;;;18.10;99.90;;;;;;5068033;28;20032;-88
2022/09/14 02:26:10;;;;;;;10.20;4.78;;;18.00;99.90;;;;;;5080857;28;20099;-87
2022/09/14 02:28:36;;;;;;;11.10;4.03;;;18.10;99.90;;;;;;5079174;28;20114;-86
2022/09/14 02:31:39;;;;;;;7.07;4.10;;;18.10;99.90;;;;;;5078904;28;20036;-87
2022/09/14 02:34:46;;;;;;;6.43;4.10;;;18.10;99.90;;;;;;5058621;28;20338;-86
2022/09/14 02:37:48;;;;;;;11.43;4.40;;;18.10;99.90;;;;;;5067941;28;20365;-88
2022/09/14 02:40:25;;;;;;;5.45;4.25;;;18.20;99.90;;;;;;5069086;28;20425;-87
2022/09/14 02:43:19;;;;;;;8.15;3.75;;;18.20;99.90;;;;;;5060444;28;20289;-88
2022/09/14 02:46:03;;;;;;;7.90;4.32;;;18.20;99.90;;;;;;5069950;28;20039;-88
2022/09/14 02:48:39;;;;;;;5.82;3.95;;;18.30;99.90;;;;;;5068961;28;20054;-90
2022/09/14 02:51:33;;;;;;;6.35;4.32;;;18.30;99.90;;;;;;5069968;28;20078;-89
2022/09/14 02:54:07;;;;;;;8.70;4.85;;;18.30;99.90;;;;;;5078870;28;20362;-88
2022/09/14 02:56:35;;;;;;;4.28;3.88;;;18.30;99.90;;;;;;5070320;28;20157;-86
2022/09/14 02:59:00;;;;;;;5.68;4.03;;;18.20;99.90;;;;;;5064994;28;20025;-86
2022/09/14 03:01:26;;;;;;;5.55;4.00;;;18.30;99.90;;;;;;5067651;28;20063;-84
2022/09/14 03:03:52;;;;;;;5.82;4.07;;;18.20;99.90;;;;;;5068348;28;20021;-87
2022/09/14 03:06:19;;;;;;;5.85;4.03;;;18.20;99.90;;;;;;5065702;28;20040;-86
2022/09/14 03:08:44;;;;;;;7.57;3.88;;;18.20;99.90;;;;;;5069529;28;20031;-87
2022/09/14 03:11:10;;;;;;;5.70;3.55;;;18.20;99.90;;;;;;5067766;28;20028;-87
2022/09/14 03:13:36;;;;;;;6.93;3.80;;;18.20;99.90;;;;;;5066831;28;20044;-87
2022/09/14 03:16:06;;;;;;;6.18;3.60;;;18.20;99.90;;;;;;5067178;28;20027;-87
2022/09/14 03:18:33;;;;;;;5.93;3.47;;;18.20;99.90;;;;;;5072453;28;20111;-87
2022/09/14 03:21:08;;;;;;;6.20;3.72;;;18.20;99.90;;;;;;5064699;28;20602;-87
2022/09/14 03:23:36;;;;;;;5.78;3.42;;;18.20;99.90;;;;;;5057962;28;20032;-88
2022/09/14 03:26:06;;;;;;;9.45;3.15;;;18.10;99.90;;;;;;5058376;28;20024;-86
2022/09/14 03:28:31;;;;;;;5.93;3.40;;;18.10;99.90;;;;;;5074328;28;20116;-88
2022/09/14 03:31:00;;;;;;;4.45;2.92;;;18.00;99.90;;;;;;5058338;28;20119;-88
2022/09/14 03:33:26;;;;;;;3.65;2.25;;;18.10;99.90;;;;;;5059363;28;20020;-86
2022/09/14 03:35:51;;;;;;;4.03;2.70;;;18.10;99.90;;;;;;5064630;28;20381;-85
2022/09/14 03:38:18;;;;;;;7.32;2.47;;;18.00;99.90;;;;;;5059580;28;20017;-87
2022/09/14 03:40:43;;;;;;;4.63;2.53;;;18.10;99.90;;;;;;5059976;28;20024;-88
2022/09/14 03:43:11;;;;;;;4.70;3.42;;;18.10;99.90;;;;;;5058197;28;20017;-87
2022/09/14 03:45:37;;;;;;;5.80;2.53;;;18.10;99.90;;;;;;5063006;28;20021;-87
2022/09/14 03:48:04;;;;;;;4.90;2.33;;;18.10;99.90;;;;;;5072681;28;20031;-88
2022/09/14 03:50:30;;;;;;;4.60;2.22;;;18.10;99.90;;;;;;5069679;28;20037;-89
2022/09/14 03:52:56;;;;;;;4.43;2.30;;;18.10;99.90;;;;;;5060959;28;20082;-89
2022/09/14 03:55:21;;;;;;;3.55;2.35;;;18.10;99.90;;;;;;5061739;28;20025;-87
2022/09/14 03:57:47;;;;;;;8.30;2.40;;;18.10;99.90;;;;;;5060381;28;20103;-89
2022/09/14 04:00:13;;;;;;;7.70;2.38;;;18.10;99.90;;;;;;5061544;28;20029;-86
2022/09/14 04:02:39;;;;;;;4.32;2.25;;;18.20;99.90;;;;;;5059459;28;20486;-87
2022/09/14 04:05:06;;;;;;;5.85;2.13;;;18.20;99.90;;;;;;5059732;28;20472;-88
2022/09/14 04:07:32;;;;;;;6.53;2.63;;;18.20;99.90;;;;;;5069154;28;20020;-87
2022/09/14 04:09:58;;;;;;;5.00;2.40;;;18.20;99.90;;;;;;5071699;28;20495;-88
2022/09/14 04:12:24;;;;;;;3.60;1.88;;;18.20;99.90;;;;;;5060377;28;20017;-87
2022/09/14 04:14:49;;;;;;;4.22;2.38;;;18.20;99.90;;;;;;5065804;28;20484;-87
2022/09/14 04:17:16;;;;;;;2.25;2.00;;;18.20;99.90;;;;;;5070997;28;20036;-87
2022/09/14 04:19:41;;;;;;;3.88;1.98;;;18.20;99.90;;;;;;5066010;28;20532;-90
2022/09/14 04:22:07;;;;;;;3.33;1.80;;;18.10;99.90;;;;;;5079361;28;20049;-88
2022/09/14 04:24:33;;;;;;;6.95;2.25;;;18.10;99.90;;;;;;5070423;28;20032;-87
2022/09/14 04:26:58;;;;;;;4.78;2.17;;;18.10;99.90;;;;;;5063245;28;20205;-87
2022/09/14 04:29:24;;;;;;;5.72;1.83;;;18.20;99.90;;;;;;5068756;28;20044;-88
2022/09/14 04:31:49;;;;;;;5.13;2.22;;;18.10;99.90;;;;;;5065599;28;20036;-86
2022/09/14 04:34:15;;;;;;;4.28;3.03;;;18.10;99.90;;;;;;5072466;28;20025;-87
2022/09/14 04:36:41;;;;;;;4.05;2.05;;;18.10;99.90;;;;;;5070219;28;20116;-87
2022/09/14 04:39:10;;;;;;;4.15;2.40;;;18.10;99.90;;;;;;5080447;28;20082;-87
2022/09/14 04:41:36;;;;;;;6.53;2.25;;;18.10;99.90;;;;;;5080184;28;20100;-91
2022/09/14 04:44:01;;;;;;;8.88;2.25;;;18.10;99.90;;;;;;5074768;28;20496;-85
2022/09/14 04:46:33;;;;;;;3.97;2.85;;;18.10;99.90;;;;;;5079115;28;20031;-85
2022/09/14 04:48:59;;;;;;;5.10;2.10;;;18.00;99.90;;;;;;5081247;28;20025;-86
2022/09/14 04:51:26;;;;;;;3.72;2.30;;;18.10;99.90;;;;;;5079211;28;20033;-86
2022/09/14 04:53:55;;;;;;;4.20;2.50;;;18.00;99.90;;;;;;5059859;28;20075;-86
2022/09/14 04:56:22;;;;;;;8.07;2.13;;;18.00;99.90;;;;;;5068944;28;20138;-86
2022/09/14 04:58:51;;;;;;;6.07;2.42;;;18.00;99.90;;;;;;5066942;28;20108;-86
2022/09/14 05:01:19;;;;;;;3.92;2.08;;;18.00;99.90;;;;;;5076038;28;20056;-86
2022/09/14 05:03:45;;;;;;;3.70;1.92;;;18.00;99.90;;;;;;5067927;28;20020;-86
2022/09/14 05:06:13;;;;;;;3.72;2.38;;;18.00;99.90;;;;;;5068361;28;20089;-86
2022/09/14 05:08:40;;;;;;;6.93;2.30;;;18.00;99.90;;;;;;5068941;28;20021;-86
2022/09/14 05:11:07;;;;;;;2.63;1.90;;;18.00;99.90;;;;;;5069626;28;20043;-86
2022/09/14 05:13:33;;;;;;;3.95;2.53;;;18.00;99.90;;;;;;5075690;28;20044;-87
2022/09/14 05:16:16;;;;;;;10.18;2.72;;;18.10;99.90;;;;;;5063609;28;20381;-85
2022/09/14 05:18:42;;;;;;;6.40;2.45;;;18.10;99.90;;;;;;5075138;28;20377;-85
2022/09/14 05:21:10;;;;;;;5.15;2.25;;;18.10;99.90;;;;;;5060763;28;20064;-85
2022/09/14 05:23:36;;;;;;;4.43;2.00;;;18.10;99.90;;;;;;5068039;28;20013;-85
2022/09/14 05:26:03;;;;;;;4.28;1.83;;;18.10;99.90;;;;;;5067556;28;20422;-86
2022/09/14 05:28:29;;;;;;;5.32;1.85;;;18.10;99.90;;;;;;5069327;28;20417;-85
2022/09/14 05:30:54;;;;;;;3.08;2.08;;;18.10;99.90;;;;;;5067168;28;20129;-84
2022/09/14 05:33:21;;;;;;;4.45;2.05;;;18.10;99.90;;;;;;5068385;28;20047;-84
2022/09/14 05:35:48;;;;;;;6.78;2.17;;;18.10;99.90;;;;;;5073461;28;20086;-85
2022/09/14 05:38:14;;;;;;;12.05;2.80;;;18.00;99.90;;;;;;5072630;28;20017;-85
2022/09/14 05:40:39;;;;;;;3.05;1.98;;;18.00;99.90;;;;;;5073933;28;20111;-86
2022/09/14 05:43:05;;;;;;;6.78;2.40;;;18.00;99.90;;;;;;5075042;28;20042;-86
2022/09/14 05:45:32;;;;;;;3.05;1.75;;;18.00;99.90;;;;;;5075108;28;20033;-87
2022/09/14 05:48:05;;;;;;;5.25;1.95;;;18.00;99.90;;;;;;5075451;28;20020;-86
2022/09/14 05:50:33;;;;;;;3.90;1.80;;;18.10;99.90;;;;;;5080907;28;20044;-85
2022/09/14 05:52:59;;;;;;;5.30;1.70;;;18.10;99.90;;;;;;5090654;28;20033;-85
2022/09/14 05:55:25;;;;;;;5.93;2.20;;;18.10;99.90;;;;;;5088642;28;20175;-85
2022/09/14 05:57:51;;;;;;;7.47;1.90;;;18.10;99.90;;;;;;5088026;28;20020;-86
2022/09/14 06:00:17;;;;;;;3.40;1.58;;;18.20;99.90;;;;;;5090230;28;20552;-85
2022/09/14 06:02:50;;;;;;;4.10;1.73;;;18.20;99.90;;;;;;5088845;28;20842;-86
2022/09/14 06:05:16;;;;;;;4.10;1.52;;;18.30;99.90;;;;;;5080958;28;20031;-85
2022/09/14 06:07:42;;;;;;;4.68;1.75;;;18.30;99.90;;;;;;5072159;28;20031;-86
2022/09/14 06:10:09;;;;;;;5.00;2.03;;;18.30;99.90;;;;;;5073153;28;20066;-86
2022/09/14 06:12:35;;;;;;;8.00;1.80;;;18.30;99.90;;;;;;5070796;28;20465;-86
2022/09/14 06:15:00;;;;;;;4.38;1.65;;;18.30;99.90;;;;;;5072144;28;20035;-86
2022/09/14 06:17:30;;;;;;;5.75;2.25;;;18.30;99.90;;;;;;5070438;28;20024;-86
2022/09/14 06:19:56;;;;;;;3.28;1.58;;;18.30;99.90;;;;;;5072635;28;20024;-86
2022/09/14 06:22:21;;;;;;;7.95;1.77;;;18.40;99.90;;;;;;5070640;28;20039;-87
2022/09/14 06:24:46;;;;;;;10.40;2.03;;;18.40;99.90;;;;;;5070336;28;20033;-86
2022/09/14 06:27:12;;;;;;;5.35;1.67;;;18.40;99.90;;;;;;5078906;28;20024;-87
2022/09/14 06:29:38;;;;;;;5.82;1.42;;;18.40;99.80;;;;;;5071641;28;20024;-87
2022/09/14 06:32:04;;;;;;;5.47;1.50;;;18.50;99.70;;;;;;5071310;28;20033;-87
2022/09/14 06:34:29;;;;;;;2.60;1.27;;;18.50;99.60;;;;;;5077540;28;20021;-85
2022/09/14 06:36:55;;;;;;;2.72;1.38;;;18.50;99.70;;;;;;5069912;28;20025;-83
2022/09/14 06:39:21;;;;;;;3.50;1.60;;;18.60;99.70;;;;;;5071613;28;20025;-82
2022/09/14 06:41:46;;;;;;;4.95;1.45;;;18.60;99.70;;;;;;5071931;28;20059;-81
2022/09/14 06:44:12;;;;;;;7.43;2.08;;;18.60;99.60;;;;;;5069617;28;20043;-79
2022/09/14 06:46:37;;;;;;;6.18;1.27;;;18.60;99.00;;;;;;5070340;28;20031;-81
2022/09/14 06:49:09;;;;;;;4.03;1.35;;;18.70;98.80;;;;;;5071381;28;20603;-83
2022/09/14 06:51:37;;;;;;;7.25;2.13;;;18.70;98.90;;;;;;5071368;28;20020;-84
2022/09/14 06:54:04;;;;;;;3.15;1.30;;;18.60;98.90;;;;;;5071222;28;20040;-83
2022/09/14 06:56:35;;;;;;;1.70;0.90;;;18.60;99.10;;;;;;5071027;28;20016;-84
2022/09/14 06:59:01;;;;;;;6.25;1.50;;;18.60;99.20;;;;;;5071069;28;20032;-85
2022/09/14 07:01:28;;;;;;;8.95;1.90;;;18.60;99.30;;;;;;5071978;28;20035;-85
2022/09/14 07:03:54;;;;;;;3.42;1.67;;;18.60;99.00;;;;;;5073034;28;20440;-86
2022/09/14 07:06:22;;;;;;;4.45;1.58;;;18.50;99.10;;;;;;5070997;28;20047;-86
2022/09/14 07:08:49;;;;;;;7.13;1.50;;;18.40;98.90;;;;;;5073248;28;20027;-79
2022/09/14 07:11:19;;;;;;;124.65;11.75;;;18.40;98.90;;;;;;5070197;28;20123;-86
2022/09/14 07:13:46;;;;;;;67.05;7.72;;;18.30;99.70;;;;;;5069888;28;20051;-83
2022/09/14 07:16:12;;;;;;;53.13;5.70;;;18.40;99.70;;;;;;5070590;28;20081;-83
2022/09/14 07:18:38;;;;;;;137.50;12.43;;;18.40;99.50;;;;;;5079652;28;20024;-85
2022/09/14 07:21:05;;;;;;;64.28;6.10;;;18.40;99.60;;;;;;5085201;28;20025;-84
2022/09/14 07:23:30;;;;;;;18.00;2.95;;;18.40;99.50;;;;;;5084887;28;20154;-80
2022/09/14 07:26:08;;;;;;;17.42;1.98;;;18.50;99.30;;;;;;5078583;28;20099;-80
2022/09/14 07:28:35;;;;;;;5.97;1.35;;;18.50;99.20;;;;;;5068989;28;20028;-80
2022/09/14 07:31:00;;;;;;;13.75;2.67;;;18.60;99.20;;;;;;5071363;28;20369;-82
2022/09/14 07:33:26;;;;;;;6.38;1.60;;;18.60;99.00;;;;;;5069887;28;20028;-88
2022/09/14 07:35:52;;;;;;;4.05;1.05;;;18.60;99.10;;;;;;5070165;28;20423;-87
2022/09/14 07:38:18;;;;;;;7.50;0.90;;;18.60;98.60;;;;;;5081463;28;20028;-87
2022/09/14 07:40:44;;;;;;;3.90;1.17;;;18.60;98.30;;;;;;5067391;28;20082;-86
2022/09/14 07:43:10;;;;;;;3.83;1.17;;;18.70;97.90;;;;;;5070094;28;20032;-87
2022/09/14 07:45:37;;;;;;;6.55;1.30;;;18.70;97.90;;;;;;5070189;28;20032;-87
2022/09/14 07:48:04;;;;;;;4.70;0.85;;;18.70;98.00;;;;;;5070695;28;20078;-85
2022/09/14 07:50:30;;;;;;;6.63;1.27;;;18.60;98.30;;;;;;5069394;28;20028;-87
2022/09/14 07:52:55;;;;;;;3.42;1.10;;;18.70;98.50;;;;;;5070008;28;20071;-87
2022/09/14 07:55:21;;;;;;;4.30;1.55;;;18.60;98.80;;;;;;5069325;28;20088;-86
2022/09/14 07:57:47;;;;;;;5.47;1.20;;;18.60;99.10;;;;;;5069434;28;20032;-87
2022/09/14 08:00:13;;;;;;;9.38;1.35;;;18.70;99.40;;;;;;5068953;28;20043;-89
2022/09/14 08:02:39;;;;;;;4.07;1.13;;;18.80;98.60;;;;;;5070658;28;20579;-88
2022/09/14 08:05:05;;;;;;;3.85;0.90;;;18.70;98.50;;;;;;5069273;28;20111;-87
2022/09/14 08:07:30;;;;;;;6.45;1.35;;;18.70;98.50;;;;;;5072385;28;20028;-88
2022/09/14 08:09:56;;;;;;;5.65;1.15;;;18.70;98.20;;;;;;5074444;28;20028;-86
2022/09/14 08:12:21;;;;;;;8.45;1.67;;;18.70;97.70;;;;;;5072328;28;20032;-87
2022/09/14 08:14:47;;;;;;;6.72;0.95;;;18.70;97.80;;;;;;5072448;28;20032;-87
2022/09/14 08:17:12;;;;;;;8.15;1.20;;;18.60;97.50;;;;;;5079077;28;20022;-87
2022/09/14 08:19:40;;;;;;;4.75;1.13;;;18.50;97.70;;;;;;5096002;28;20028;-88
2022/09/14 08:22:05;;;;;;;6.55;1.35;;;18.50;97.80;;;;;;5095759;28;20032;-86
2022/09/14 08:24:32;;;;;;;6.70;1.40;;;18.40;98.20;;;;;;5100845;28;20019;-86
2022/09/14 08:26:58;;;;;;;10.10;1.70;;;18.30;98.40;;;;;;5089835;28;20205;-86
2022/09/14 08:29:23;;;;;;;5.47;1.15;;;18.40;98.40;;;;;;5087476;28;20065;-87
2022/09/14 08:31:50;;;;;;;5.68;1.50;;;18.40;98.60;;;;;;5071876;28;20028;-86
2022/09/14 08:34:16;;;;;;;6.60;1.25;;;18.50;98.50;;;;;;5070207;28;20487;-88
2022/09/14 08:36:42;;;;;;;3.00;0.88;;;18.60;98.40;;;;;;5069879;28;20025;-86
2022/09/14 08:39:11;;;;;;;5.05;1.25;;;18.60;98.10;;;;;;5078986;28;20031;-87
2022/09/14 08:41:43;;;;;;;5.90;1.85;;;18.60;98.20;;;;;;5069437;28;20126;-86
2022/09/14 08:44:14;;;;;;;5.90;1.13;;;18.70;98.10;;;;;;5053646;28;20009;-88
2022/09/14 08:46:58;;;;;;;3.75;1.67;;;18.60;97.90;;;;;;5069432;28;20128;-86
2022/09/14 08:49:37;;;;;;;5.68;2.00;;;18.70;98.30;;;;;;5070698;28;20520;-88
2022/09/14 08:52:03;;;;;;;2.63;0.80;;;18.70;98.00;;;;;;5069638;28;20021;-88
2022/09/14 08:54:31;;;;;;;4.47;1.10;;;18.50;97.90;;;;;;5085766;28;20027;-87
2022/09/14 08:57:32;;;;;;;6.00;0.93;;;18.40;98.20;;;;;;5076163;28;20397;-88
2022/09/14 09:00:12;;;;;;;7.57;1.10;;;18.50;98.30;;;;;;5058741;28;20054;-87
2022/09/14 09:03:00;;;;;;;5.25;0.93;;;18.60;98.60;;;;;;5069769;28;20033;-87
2022/09/14 09:05:42;;;;;;;5.90;1.20;;;18.70;98.70;;;;;;5059535;28;20031;-88
2022/09/14 09:08:29;;;;;;;2.78;0.85;;;18.80;98.30;;;;;;5069379;28;20547;-86
2022/09/14 09:10:58;;;;;;;7.32;2.45;;;18.90;98.20;;;;;;5069204;28;20112;-86
2022/09/14 09:13:28;;;;;;;1.92;0.98;;;18.90;97.80;;;;;;5068343;28;20066;-86
2022/09/14 09:15:58;;;;;;;9.82;1.63;;;19.00;97.80;;;;;;5070102;28;20024;-87
2022/09/14 09:18:46;;;;;;;3.92;0.82;;;19.00;98.00;;;;;;5072872;28;20044;-88
2022/09/14 09:21:22;;;;;;;4.93;0.93;;;19.10;97.70;;;;;;5073015;28;20066;-86
2022/09/14 09:23:47;;;;;;;4.78;0.85;;;19.20;98.00;;;;;;5067361;28;20354;-87
2022/09/14 09:26:28;;;;;;;6.28;1.33;;;19.40;97.70;;;;;;5074142;28;20070;-86
2022/09/14 09:28:57;;;;;;;4.72;1.20;;;19.30;97.10;;;;;;5073698;28;20032;-86
2022/09/14 09:31:46;;;;;;;5.95;1.27;;;19.30;97.40;;;;;;5072587;28;20051;-87
2022/09/14 09:34:20;;;;;;;4.70;1.05;;;19.40;97.50;;;;;;5070383;28;20085;-88
2022/09/14 09:36:48;;;;;;;3.53;0.95;;;19.40;97.40;;;;;;5072501;28;20404;-88
2022/09/14 09:39:15;;;;;;;6.50;1.27;;;19.40;97.40;;;;;;5067933;28;20082;-88
2022/09/14 09:41:46;;;;;;;3.03;1.08;;;19.30;97.50;;;;;;5072917;28;20565;-88
2022/09/14 09:44:14;;;;;;;4.13;1.50;;;19.40;97.20;;;;;;5074627;28;20044;-87
2022/09/14 09:46:49;;;;;;;2.35;0.70;;;19.30;96.70;;;;;;5076639;28;20023;-87
2022/09/14 09:49:29;;;;;;;3.70;0.80;;;19.20;96.70;;;;;;5073323;28;20633;-86
2022/09/14 09:51:55;;;;;;;6.43;1.05;;;19.30;97.00;;;;;;5072478;28;20078;-87
2022/09/14 09:54:31;;;;;;;4.68;0.93;;;19.30;96.30;;;;;;5072429;28;20024;-88
2022/09/14 09:57:04;;;;;;;6.22;0.90;;;19.10;96.30;;;;;;5072841;28;20024;-86
2022/09/14 09:59:39;;;;;;;3.78;0.82;;;19.10;96.40;;;;;;5072296;28;20020;-86
2022/09/14 10:02:30;;;;;;;5.18;0.80;;;19.00;96.60;;;;;;5071805;28;20028;-86
2022/09/14 10:04:57;;;;;;;2.50;0.77;;;18.90;96.50;;;;;;5071320;28;20029;-87
2022/09/14 10:07:24;;;;;;;1.67;0.90;;;19.00;96.60;;;;;;5071114;28;20051;-89
2022/09/14 10:10:06;;;;;;;5.03;1.00;;;19.10;97.00;;;;;;5071886;28;20697;-89
2022/09/14 10:12:32;;;;;;;4.30;0.93;;;19.20;96.70;;;;;;5072239;28;20016;-88
2022/09/14 10:15:14;;;;;;;4.45;0.90;;;19.30;97.20;;;;;;5071942;28;20453;-87
2022/09/14 10:17:40;;;;;;;6.90;1.58;;;19.30;96.80;;;;;;5069883;28;20449;-85
2022/09/14 10:20:06;;;;;;;4.93;0.80;;;19.40;96.70;;;;;;5063976;28;20035;-85
2022/09/14 10:22:42;;;;;;;9.52;1.08;;;19.50;96.20;;;;;;5068127;28;20385;-87
2022/09/14 10:25:13;;;;;;;3.05;0.90;;;19.30;96.10;;;;;;5050842;28;20055;-88
2022/09/14 10:27:55;;;;;;;6.93;0.80;;;19.20;96.20;;;;;;5073874;28;20052;-88
2022/09/14 10:30:37;;;;;;;5.70;1.05;;;19.20;96.60;;;;;;5062521;28;20036;-89
2022/09/14 10:33:05;;;;;;;8.60;0.90;;;19.20;96.20;;;;;;5057198;28;20481;-89
2022/09/14 10:35:49;;;;;;;3.05;0.95;;;19.20;96.00;;;;;;5070825;28;20127;-88
2022/09/14 10:38:30;;;;;;;5.97;1.13;;;19.10;96.80;;;;;;5068600;28;20063;-88
2022/09/14 10:41:19;;;;;;;4.82;1.20;;;19.20;97.00;;;;;;5065244;28;20024;-88
2022/09/14 10:44:10;;;;;;;2.65;1.00;;;19.30;97.00;;;;;;5069710;28;20013;-88
2022/09/14 10:46:47;;;;;;;5.93;1.27;;;19.40;97.40;;;;;;5070072;28;20024;-88
2022/09/14 10:49:58;;;;;;;5.82;0.95;;;19.40;97.60;;;;;;5072133;28;20017;-87
2022/09/14 10:52:43;;;;;;;2.75;0.90;;;19.40;97.20;;;;;;5048011;28;20066;-82
2022/09/14 10:55:43;;;;;;;2.10;0.93;;;19.40;97.50;;;;;;5057669;28;20025;-90
2022/09/14 10:58:36;;;;;;;5.00;1.15;;;19.40;97.70;;;;;;5075891;28;20513;-89
2022/09/14 11:01:31;;;;;;;7.28;0.77;;;19.30;97.80;;;;;;5065195;28;20024;-90
2022/09/14 11:04:21;;;;;;;4.68;0.90;;;19.40;98.00;;;;;;5069506;28;20012;-91
2022/09/14 11:06:58;;;;;;;4.28;1.63;;;19.30;98.60;;;;;;5071032;28;20012;-91
2022/09/14 11:10:09;;;;;;;2.50;0.80;;;19.30;98.10;;;;;;5065860;28;20020;-91
2022/09/14 11:12:50;;;;;;;3.88;0.95;;;19.30;98.40;;;;;;5071048;28;20457;-90
2022/09/14 11:15:37;;;;;;;1.13;0.80;;;19.30;98.90;;;;;;5070941;28;20035;-90
2022/09/14 11:18:05;;;;;;;5.68;1.92;;;19.20;98.40;;;;;;5072801;28;20050;-90
2022/09/14 11:21:23;;;;;;;3.00;1.00;;;19.10;98.60;;;;;;5070958;28;20106;-90
2022/09/14 11:24:07;;;;;;;6.28;1.02;;;19.10;98.20;;;;;;5034068;28;20033;-90
2022/09/14 11:26:37;;;;;;;3.95;1.20;;;19.00;98.70;;;;;;5069976;28;20055;-90
2022/09/14 11:29:18;;;;;;;5.05;1.50;;;19.00;99.00;;;;;;5066858;28;20031;-90
2022/09/14 11:31:57;;;;;;;3.20;0.90;;;19.00;99.50;;;;;;5071771;28;20024;-89
2022/09/14 11:34:30;;;;;;;4.32;1.08;;;18.90;98.90;;;;;;5070775;28;20082;-89
2022/09/14 11:37:09;;;;;;;7.55;2.00;;;18.90;99.20;;;;;;5070877;28;20028;-89
2022/09/14 11:39:42;;;;;;;3.08;1.35;;;18.90;99.50;;;;;;5069499;28;20040;-87
2022/09/14 11:42:26;;;;;;;4.45;1.30;;;18.90;99.80;;;;;;5086169;28;20024;-89
2022/09/14 11:45:01;;;;;;;5.25;1.25;;;18.90;99.90;;;;;;5069331;28;20112;-88
2022/09/14 11:47:40;;;;;;;3.58;0.80;;;19.00;99.60;;;;;;5068642;28;20017;-87
2022/09/14 11:50:19;;;;;;;5.03;0.90;;;19.00;99.70;;;;;;5071131;28;20082;-87
2022/09/14 11:52:47;;;;;;;7.13;1.17;;;19.00;99.80;;;;;;5071419;28;20020;-88
2022/09/14 11:55:17;;;;;;;1.98;1.13;;;19.00;99.90;;;;;;5072113;28;20029;-86
2022/09/14 11:57:45;;;;;;;5.72;1.20;;;19.00;99.90;;;;;;5072271;28;20115;-87
2022/09/14 12:00:22;;;;;;;2.20;0.65;;;19.00;99.90;;;;;;5102744;28;20080;-87
2022/09/14 12:03:18;;;;;;;2.50;0.82;;;19.10;99.90;;;;;;5108477;28;20018;-86
2022/09/14 12:05:45;;;;;;;2.45;1.00;;;19.00;99.80;;;;;;5087743;28;20031;-87
2022/09/14 12:08:23;;;;;;;3.55;1.20;;;18.80;99.90;;;;;;5104939;28;20023;-87
2022/09/14 12:11:00;;;;;;;4.53;1.30;;;18.70;99.90;;;;;;5100639;28;20051;-87
2022/09/14 12:13:25;;;;;;;3.17;1.77;;;18.80;99.90;;;;;;5077200;28;20110;-86
2022/09/14 12:16:04;;;;;;;3.85;1.02;;;18.80;99.90;;;;;;5068837;28;20473;-87
2022/09/14 12:18:30;;;;;;;6.05;1.40;;;18.70;99.90;;;;;;5070508;28;20016;-87
2022/09/14 12:21:06;;;;;;;5.50;1.40;;;18.70;99.90;;;;;;5068396;28;20425;-87
2022/09/14 12:23:38;;;;;;;3.03;1.30;;;18.70;99.90;;;;;;5068556;28;20525;-87
2022/09/14 12:26:33;;;;;;;3.50;1.38;;;18.70;99.90;;;;;;5067088;28;20029;-86
2022/09/14 12:29:05;;;;;;;2.90;1.75;;;18.70;99.90;;;;;;5067089;28;20062;-84
2022/09/14 12:31:42;;;;;;;7.65;1.50;;;18.80;99.90;;;;;;5067577;28;20457;-86
2022/09/14 12:34:16;;;;;;;3.70;2.03;;;18.70;99.90;;;;;;5067715;28;20025;-86
2022/09/14 12:36:42;;;;;;;2.75;1.55;;;18.70;99.90;;;;;;5067048;28;20052;-88
2022/09/14 12:39:26;;;;;;;2.47;1.25;;;18.70;99.90;;;;;;5069383;28;20048;-85
2022/09/14 12:41:52;;;;;;;8.13;2.00;;;18.80;99.90;;;;;;5068886;28;20028;-86
2022/09/14 12:44:31;;;;;;;3.15;1.38;;;18.90;99.90;;;;;;5069316;28;20029;-86
2022/09/14 12:46:56;;;;;;;4.07;1.85;;;18.90;99.90;;;;;;5068701;28;20035;-86
2022/09/14 12:49:30;;;;;;;3.20;1.60;;;18.90;99.90;;;;;;5069246;28;20028;-87
2022/09/14 12:52:01;;;;;;;5.30;1.70;;;19.00;99.90;;;;;;5073163;28;20035;-86
2022/09/14 12:54:41;;;;;;;6.22;1.25;;;19.10;99.90;;;;;;5072005;28;20115;-85
2022/09/14 12:57:28;;;;;;;5.65;2.35;;;19.00;99.90;;;;;;5071759;28;20025;-86
2022/09/14 13:00:15;;;;;;;5.15;1.80;;;19.00;99.90;;;;;;5072306;28;20013;-88
2022/09/14 13:03:06;;;;;;;7.53;2.28;;;19.10;99.90;;;;;;5071913;28;20035;-86
2022/09/14 13:05:33;;;;;;;5.70;2.22;;;19.10;99.90;;;;;;5082955;28;20473;-86
2022/09/14 13:07:59;;;;;;;4.38;1.83;;;19.10;99.90;;;;;;5071159;28;20066;-85
2022/09/14 13:10:32;;;;;;;3.15;1.77;;;19.00;99.90;;;;;;5073350;28;20051;-85